createdAt,value
2023-02-12T00:01:42.616Z,5.51
2023-02-12T00:05:04.501Z,5.68
2023-02-12T00:08:28.769Z,5.71
2023-02-12T00:11:50.394Z,5.85
2023-02-12T00:15:12.060Z,5.95
2023-02-12T00:18:33.695Z,5.99
2023-02-12T00:21:55.350Z,5.88
2023-02-12T00:25:18.956Z,5.86
2023-02-12T00:28:40.971Z,5.72
2023-02-12T00:32:02.679Z,5.79
2023-02-12T00:35:24.331Z,5.76
2023-02-12T00:38:46.639Z,5.69
2023-02-12T00:42:08.660Z,5.76
2023-02-12T00:45:32.897Z,5.83
2023-02-12T00:48:57.067Z,5.82
2023-02-12T00:52:21.159Z,5.95
2023-02-12T00:55:42.770Z,5.95
2023-02-12T00:59:04.344Z,5.92
2023-02-12T01:02:26.008Z,6.00
2023-02-12T01:05:48.004Z,5.98
2023-02-12T01:09:09.589Z,5.96
2023-02-12T01:12:31.263Z,6.02
2023-02-12T01:16:23.402Z,5.95
2023-02-12T01:19:45.052Z,5.92
2023-02-12T01:23:08.913Z,5.92
2023-02-12T01:26:33.784Z,5.88
2023-02-12T01:29:57.867Z,6.03
2023-02-12T01:33:21.115Z,6.00
2023-02-12T01:36:42.667Z,5.83
2023-02-12T01:40:05.637Z,5.93
2023-02-12T01:43:27.239Z,5.93
2023-02-12T01:46:55.925Z,5.79
2023-02-12T01:50:20.394Z,5.83
2023-02-12T01:53:49.326Z,5.82
2023-02-12T01:57:12.984Z,5.83
2023-02-12T02:00:34.630Z,5.93
2023-02-12T02:04:02.164Z,5.81
2023-02-12T02:07:26.483Z,5.72
2023-02-12T02:10:48.108Z,5.68
2023-02-12T02:14:28.432Z,5.71
2023-02-12T02:17:55.939Z,5.90
2023-02-12T02:21:35.937Z,5.73
2023-02-12T02:25:06.588Z,5.69
2023-02-12T02:28:28.207Z,5.68
2023-02-12T02:31:57.346Z,5.71
2023-02-12T02:35:30.580Z,5.58
2023-02-12T02:39:06.293Z,5.58
2023-02-12T02:42:35.306Z,5.63
2023-02-12T02:46:05.669Z,5.31
2023-02-12T02:49:51.344Z,5.48
2023-02-12T02:53:18.548Z,5.48
2023-02-12T02:56:44.940Z,5.34
2023-02-12T03:00:18.647Z,5.35
2023-02-12T03:03:49.021Z,5.31
2023-02-12T03:07:16.896Z,5.31
2023-02-12T03:10:44.887Z,5.27
2023-02-12T03:14:15.526Z,5.20
2023-02-12T03:17:44.560Z,5.23
2023-02-12T03:21:14.341Z,5.17
2023-02-12T03:24:45.447Z,5.34
2023-02-12T03:28:17.395Z,5.37
2023-02-12T03:31:48.031Z,5.22
2023-02-12T03:35:22.000Z,5.14
2023-02-12T03:38:51.650Z,5.22
2023-02-12T03:42:39.245Z,5.17
2023-02-12T03:46:37.184Z,5.28
2023-02-12T03:50:14.864Z,5.22
2023-02-12T03:53:36.899Z,5.19
2023-02-12T03:57:12.231Z,5.26
2023-02-12T04:00:33.894Z,5.17
2023-02-12T04:03:58.792Z,5.09
2023-02-12T04:07:20.735Z,5.03
2023-02-12T04:11:00.211Z,5.04
2023-02-12T04:14:57.419Z,5.00
2023-02-12T04:18:29.071Z,4.97
2023-02-12T04:22:07.609Z,4.97
2023-02-12T04:25:35.052Z,4.90
2023-02-12T04:29:05.787Z,4.86
2023-02-12T04:32:43.373Z,4.83
2023-02-12T04:36:20.042Z,4.80
2023-02-12T04:39:45.364Z,4.85
2023-02-12T04:46:53.791Z,4.83
2023-02-12T04:50:15.572Z,4.76
2023-02-12T04:53:41.928Z,4.79
2023-02-12T04:57:07.412Z,4.77
2023-02-12T05:00:29.252Z,4.51
2023-02-12T05:03:54.231Z,4.33
2023-02-12T05:07:16.076Z,4.17
2023-02-12T05:10:40.235Z,4.03
2023-02-12T05:14:02.008Z,3.66
2023-02-12T05:17:24.643Z,3.55
2023-02-12T05:20:49.178Z,3.43
2023-02-12T05:24:10.776Z,3.31
2023-02-12T05:27:37.152Z,3.39
2023-02-12T05:31:14.212Z,3.36
2023-02-12T05:34:38.072Z,3.27
2023-02-12T05:38:01.884Z,3.35
2023-02-12T05:41:28.395Z,3.28
2023-02-12T05:44:52.359Z,3.35
2023-02-12T05:48:14.180Z,3.22
2023-02-12T05:51:36.318Z,2.97
2023-02-12T05:54:57.857Z,2.76
2023-02-12T05:58:19.687Z,2.63
2023-02-12T06:01:43.264Z,2.60
2023-02-12T06:05:05.236Z,2.49
2023-02-12T06:08:26.795Z,2.46
2023-02-12T06:11:53.659Z,2.38
2023-02-12T06:15:15.310Z,2.18
2023-02-12T06:18:36.993Z,2.27
2023-02-12T06:22:01.274Z,2.31
2023-02-12T06:25:22.851Z,2.35
2023-02-12T06:28:44.843Z,2.48
2023-02-12T06:32:08.578Z,2.50
2023-02-12T06:35:30.230Z,2.34
2023-02-12T06:38:52.847Z,2.35
2023-02-12T06:42:14.525Z,2.45
2023-02-12T06:45:38.964Z,2.69
2023-02-12T06:49:01.218Z,3.01
2023-02-12T06:52:23.097Z,3.11
2023-02-12T06:55:44.702Z,3.39
2023-02-12T06:59:06.602Z,3.61
2023-02-12T07:02:31.155Z,3.54
2023-02-12T07:05:52.839Z,3.51
2023-02-12T07:09:14.502Z,3.62
2023-02-12T07:12:36.148Z,3.66
2023-02-12T07:15:59.943Z,3.72
2023-02-12T07:19:21.756Z,3.80
2023-02-12T07:22:43.337Z,3.94
2023-02-12T07:26:10.886Z,4.13
2023-02-12T07:29:34.928Z,4.31
2023-02-12T07:32:56.584Z,4.44
2023-02-12T07:36:19.860Z,4.65
2023-02-12T07:39:43.657Z,4.95
2023-02-12T07:43:07.652Z,5.40
2023-02-12T07:46:32.568Z,6.58
2023-02-12T07:49:56.348Z,7.60
2023-02-12T07:53:18.015Z,8.72
2023-02-12T07:56:41.268Z,9.40
2023-02-12T08:00:06.919Z,10.05
2023-02-12T08:03:29.187Z,10.63
2023-02-12T08:06:54.045Z,10.91
2023-02-12T08:10:15.864Z,10.57
2023-02-12T08:13:38.032Z,10.97
2023-02-12T08:16:59.670Z,11.66
2023-02-12T08:20:21.302Z,12.14
2023-02-12T08:23:42.862Z,12.05
2023-02-12T08:27:05.272Z,12.05
2023-02-12T08:30:26.831Z,12.01
2023-02-12T08:33:49.733Z,11.87
2023-02-12T08:37:13.568Z,11.79
2023-02-12T08:40:40.405Z,12.28
2023-02-12T08:44:04.623Z,12.88
2023-02-12T08:47:26.408Z,12.95
2023-02-12T08:50:47.998Z,12.56
2023-02-12T08:54:15.271Z,12.34
2023-02-12T08:57:39.325Z,12.01
2023-02-12T09:01:02.608Z,11.79
2023-02-12T09:04:28.505Z,12.01
2023-02-12T09:07:53.549Z,12.31
2023-02-12T09:11:19.560Z,12.53
2023-02-12T09:14:43.499Z,12.69
2023-02-12T09:18:05.695Z,13.37
2023-02-12T09:21:29.500Z,13.87
2023-02-12T09:24:51.046Z,14.37
2023-02-12T09:28:17.415Z,14.54
2023-02-12T09:31:39.366Z,14.63
2023-02-12T09:35:01.058Z,14.33
2023-02-12T09:38:24.952Z,14.56
2023-02-12T09:42:04.343Z,15.33
2023-02-12T09:45:36.270Z,15.39
2023-02-12T09:49:13.083Z,14.68
2023-02-12T09:52:35.376Z,14.67
2023-02-12T09:55:57.950Z,14.96
2023-02-12T09:59:36.279Z,15.10
2023-02-12T10:03:05.349Z,15.30
2023-02-12T10:06:36.270Z,14.74
2023-02-12T10:10:06.273Z,15.15
2023-02-12T10:13:48.184Z,15.20
2023-02-12T10:17:27.808Z,15.66
2023-02-12T10:21:11.698Z,15.70
2023-02-12T10:25:10.672Z,15.46
2023-02-12T10:28:39.295Z,16.04
2023-02-12T10:32:04.247Z,16.81
2023-02-12T10:35:26.337Z,17.38
2023-02-12T10:38:55.613Z,18.22
2023-02-12T10:42:24.449Z,17.93
2023-02-12T10:45:46.164Z,18.25
2023-02-12T10:49:11.561Z,18.31
2023-02-12T10:52:45.361Z,18.01
2023-02-12T10:56:12.894Z,16.90
2023-02-12T10:59:35.849Z,16.18
2023-02-12T11:03:06.883Z,15.91
2023-02-12T11:06:32.938Z,16.46
2023-02-12T11:09:56.169Z,16.63
2023-02-12T11:13:25.988Z,16.84
2023-02-12T11:16:56.337Z,17.96
2023-02-12T11:20:17.887Z,18.31
2023-02-12T11:23:44.169Z,17.67
2023-02-12T11:27:29.835Z,16.57
2023-02-12T11:30:54.369Z,16.01
2023-02-12T11:34:19.815Z,15.63
2023-02-12T11:37:43.684Z,15.44
2023-02-12T11:41:20.231Z,15.12
2023-02-12T11:44:48.257Z,14.68
2023-02-12T11:48:22.501Z,14.51
2023-02-12T11:51:47.947Z,14.43
2023-02-12T11:55:43.624Z,13.95
2023-02-12T11:59:24.542Z,14.22
2023-02-12T12:02:53.744Z,14.41
2023-02-12T12:06:27.247Z,14.70
2023-02-12T12:09:58.495Z,14.38
2023-02-12T12:13:26.126Z,15.83
2023-02-12T12:17:29.247Z,17.70
2023-02-12T12:20:56.114Z,18.73
2023-02-12T12:24:23.921Z,17.70
2023-02-12T12:28:03.393Z,16.63
2023-02-12T12:31:45.855Z,15.70
2023-02-12T12:35:15.715Z,15.23
2023-02-12T12:39:11.923Z,14.79
2023-02-12T12:42:39.511Z,13.90
2023-02-12T12:46:16.919Z,13.48
2023-02-12T12:50:00.463Z,13.26
2023-02-12T12:53:56.520Z,12.76
2023-02-12T12:57:39.931Z,12.68
2023-02-12T13:01:38.751Z,12.66
2023-02-12T13:05:21.515Z,12.86
2023-02-12T13:09:24.057Z,12.69
2023-02-12T13:12:59.233Z,12.62
2023-02-12T13:16:32.537Z,12.66
2023-02-12T13:20:09.384Z,12.17
2023-02-12T13:23:50.995Z,11.86
2023-02-12T13:27:14.984Z,12.11
2023-02-12T13:30:47.374Z,11.70
2023-02-12T13:34:17.594Z,11.95
2023-02-12T13:37:41.817Z,11.49
2023-02-12T13:41:11.353Z,11.45
2023-02-12T13:44:57.224Z,11.76
2023-02-12T13:48:34.429Z,11.94
2023-02-12T13:52:14.383Z,12.14
2023-02-12T13:55:35.936Z,12.32
2023-02-12T13:59:00.470Z,12.49
2023-02-12T14:02:40.826Z,12.89
2023-02-12T14:06:09.965Z,12.82
2023-02-12T14:09:47.462Z,12.75
2023-02-12T14:13:22.157Z,12.49
2023-02-12T14:16:46.736Z,11.86
2023-02-12T14:20:45.537Z,12.21
2023-02-12T14:24:40.677Z,12.46
2023-02-12T14:28:43.621Z,12.32
2023-02-12T14:32:43.365Z,11.84
2023-02-12T14:36:18.226Z,11.72
2023-02-12T14:39:39.853Z,11.51
2023-02-12T14:43:04.181Z,11.56
2023-02-12T14:46:25.792Z,11.45
2023-02-12T14:49:49.128Z,11.29
2023-02-12T14:53:38.561Z,11.17
2023-02-12T14:57:04.647Z,11.12
2023-02-12T15:00:30.894Z,11.17
2023-02-12T15:03:55.157Z,11.22
2023-02-12T15:07:51.901Z,11.49
2023-02-12T15:11:43.274Z,11.76
2023-02-12T15:15:11.502Z,11.67
2023-02-12T15:18:44.781Z,11.83
2023-02-12T15:22:23.152Z,11.95
2023-02-12T15:25:53.015Z,12.05
2023-02-12T15:29:51.134Z,12.10
2023-02-12T15:33:25.623Z,12.11
2023-02-12T15:36:47.298Z,12.10
2023-02-12T15:40:14.605Z,12.14
2023-02-12T15:43:41.321Z,11.70
2023-02-12T15:47:13.448Z,11.28
2023-02-12T15:50:45.770Z,10.96
2023-02-12T15:54:07.872Z,10.71
2023-02-12T15:57:29.531Z,10.57
2023-02-12T16:00:55.164Z,10.45
2023-02-12T16:04:19.223Z,10.22
2023-02-12T16:07:44.888Z,10.08
2023-02-12T16:11:17.283Z,9.98
2023-02-12T16:14:43.607Z,9.94
2023-02-12T16:18:05.483Z,10.16
2023-02-12T16:21:28.278Z,10.45
2023-02-12T16:24:52.498Z,10.56
2023-02-12T16:28:24.587Z,10.59
2023-02-12T16:31:54.853Z,10.60
2023-02-12T16:35:16.437Z,10.50
2023-02-12T16:38:56.538Z,10.41
2023-02-12T16:42:20.094Z,10.11
2023-02-12T16:45:43.020Z,9.93
2023-02-12T16:49:16.569Z,9.69
2023-02-12T16:52:40.412Z,9.60
2023-02-12T16:56:06.809Z,9.37
2023-02-12T16:59:29.064Z,9.35
2023-02-12T17:02:50.815Z,9.36
2023-02-12T17:06:12.401Z,8.98
2023-02-12T17:09:34.607Z,8.50
2023-02-12T17:12:58.725Z,8.19
2023-02-12T17:16:30.299Z,7.95
2023-02-12T17:19:53.304Z,7.47
2023-02-12T17:23:14.998Z,7.13
2023-02-12T17:26:36.620Z,6.85
2023-02-12T17:29:58.508Z,6.78
2023-02-12T17:33:20.465Z,6.82
2023-02-12T17:36:44.189Z,6.74
2023-02-12T17:40:06.927Z,6.71
2023-02-12T17:43:28.537Z,6.58
2023-02-12T17:46:50.233Z,6.20
2023-02-12T17:50:14.932Z,6.19
2023-02-12T17:53:39.991Z,6.31
2023-02-12T17:57:06.363Z,6.31
2023-02-12T18:00:27.963Z,6.16
2023-02-12T18:03:52.377Z,5.98
2023-02-12T18:07:15.613Z,5.68
2023-02-12T18:10:47.662Z,5.44
2023-02-12T18:14:11.593Z,5.38
2023-02-12T18:17:33.577Z,5.51
2023-02-12T18:20:57.997Z,5.27
2023-02-12T18:24:22.296Z,5.34
2023-02-12T18:27:46.618Z,5.16
2023-02-12T18:31:11.534Z,5.00
2023-02-12T18:34:37.906Z,5.30
2023-02-12T18:38:18.203Z,5.13
2023-02-12T18:41:40.166Z,4.96
2023-02-12T18:45:07.427Z,4.80
2023-02-12T18:48:28.987Z,4.44
2023-02-12T18:51:50.582Z,4.61
2023-02-12T18:55:14.489Z,4.61
2023-02-12T18:58:37.605Z,4.80
2023-02-12T19:01:59.298Z,5.13
2023-02-12T19:05:20.961Z,5.44
2023-02-12T19:08:45.006Z,5.55
2023-02-12T19:12:09.410Z,5.59
2023-02-12T19:15:31.069Z,5.65
2023-02-12T19:18:59.098Z,5.56
2023-02-12T19:22:25.766Z,5.16
2023-02-12T19:25:49.560Z,4.79
2023-02-12T19:29:12.875Z,4.49
2023-02-12T19:32:36.824Z,4.30
2023-02-12T19:36:00.479Z,4.28
2023-02-12T19:39:24.698Z,4.30
2023-02-12T19:42:49.589Z,4.92
2023-02-12T19:46:16.304Z,5.28
2023-02-12T19:49:38.211Z,5.58
2023-02-12T19:52:59.824Z,5.78
2023-02-12T19:56:23.599Z,5.99
2023-02-12T19:59:46.523Z,6.19
2023-02-12T20:03:08.240Z,6.31
2023-02-12T20:06:33.827Z,6.37
2023-02-12T20:09:55.401Z,6.38
2023-02-12T20:13:21.635Z,6.29
2023-02-12T20:16:47.528Z,5.78
2023-02-12T20:20:10.897Z,5.38
2023-02-12T20:23:32.476Z,5.10
2023-02-12T20:26:54.829Z,5.06
2023-02-12T20:30:20.433Z,4.99
2023-02-12T20:33:45.801Z,4.92
2023-02-12T20:37:07.367Z,4.68
2023-02-12T20:40:31.812Z,4.75
2023-02-12T20:43:59.529Z,4.77
2023-02-12T20:47:28.653Z,4.80
2023-02-12T20:50:52.581Z,4.71
2023-02-12T20:54:16.362Z,4.77
2023-02-12T20:57:37.934Z,5.01
2023-02-12T21:01:09.937Z,5.52
2023-02-12T21:04:34.240Z,5.61
2023-02-12T21:07:58.228Z,5.82
2023-02-12T21:11:22.320Z,5.75
2023-02-12T21:14:44.301Z,5.89
2023-02-12T21:18:05.904Z,6.10
2023-02-12T21:21:32.573Z,5.93
2023-02-12T21:24:54.149Z,6.05
2023-02-12T21:28:15.794Z,6.29
2023-02-12T21:31:40.133Z,6.20
2023-02-12T21:35:02.327Z,5.69
2023-02-12T21:38:24.009Z,5.28
2023-02-12T21:41:45.623Z,5.06
2023-02-12T21:45:07.589Z,4.73
2023-02-12T21:48:31.430Z,4.45
2023-02-12T21:51:59.852Z,4.37
2023-02-12T21:55:23.975Z,4.37
2023-02-12T21:58:46.049Z,4.30
2023-02-12T22:02:10.123Z,4.14
2023-02-12T22:05:35.122Z,4.03
2023-02-12T22:09:01.529Z,4.21
2023-02-12T22:12:23.127Z,4.13
2023-02-12T22:15:45.472Z,4.04
2023-02-12T22:19:09.713Z,3.91
2023-02-12T22:22:31.352Z,3.59
2023-02-12T22:25:55.273Z,3.31
2023-02-12T22:29:18.738Z,3.38
2023-02-12T22:32:42.574Z,3.35
2023-02-12T22:36:08.857Z,3.21
2023-02-12T22:39:31.149Z,3.13
2023-02-12T22:42:55.046Z,3.11
2023-02-12T22:46:19.933Z,3.10
2023-02-12T22:49:41.538Z,3.05
2023-02-12T22:53:05.601Z,3.08
2023-02-12T22:56:29.994Z,3.13
2023-02-12T22:59:51.541Z,3.08
2023-02-12T23:03:13.135Z,2.96
2023-02-12T23:06:40.550Z,2.82
2023-02-12T23:10:06.620Z,2.56
2023-02-12T23:13:30.553Z,2.39
2023-02-12T23:16:52.877Z,2.55
2023-02-12T23:20:16.862Z,2.75
2023-02-12T23:23:38.464Z,2.97
2023-02-12T23:27:00.035Z,2.69
2023-02-12T23:30:21.698Z,2.60
2023-02-12T23:33:45.606Z,2.71
2023-02-12T23:37:09.758Z,2.79
2023-02-12T23:40:40.128Z,2.73
2023-02-12T23:44:03.995Z,2.48
2023-02-12T23:47:25.801Z,2.48
2023-02-12T23:50:49.699Z,2.38
2023-02-12T23:54:11.524Z,2.38
2023-02-12T23:57:35.828Z,2.41
